createdAt,value
2019-03-29T00:01:45.069Z,92.96
2019-03-29T00:04:16.450Z,93.04
2019-03-29T00:06:47.810Z,93.36
2019-03-29T00:09:19.362Z,93.27
2019-03-29T00:11:51.746Z,93.61
2019-03-29T00:14:23.657Z,93.58
2019-03-29T00:16:55.127Z,93.58
2019-03-29T00:19:27.808Z,93.81
2019-03-29T00:22:01.307Z,94.06
2019-03-29T00:24:32.748Z,94.41
2019-03-29T00:27:04.858Z,94.02
2019-03-29T00:29:36.344Z,93.73
2019-03-29T00:32:07.812Z,93.62
2019-03-29T00:34:42.067Z,94.17
2019-03-29T00:37:13.811Z,94.31
2019-03-29T00:39:47.980Z,94.16
2019-03-29T00:42:19.474Z,94.16
2019-03-29T00:44:50.855Z,94.08
2019-03-29T00:47:22.353Z,94.03
2019-03-29T00:49:53.836Z,94.01
2019-03-29T00:52:25.188Z,94.77
2019-03-29T00:54:56.690Z,95.07
2019-03-29T00:57:28.002Z,95.04
2019-03-29T01:00:01.042Z,95.15
2019-03-29T01:02:32.372Z,94.94
2019-03-29T01:05:03.872Z,95.09
2019-03-29T01:07:35.233Z,95.41
2019-03-29T01:10:07.852Z,94.81
2019-03-29T01:12:39.700Z,94.71
2019-03-29T01:15:11.406Z,94.49
2019-03-29T01:17:42.894Z,94.55
2019-03-29T01:20:15.227Z,94.96
2019-03-29T01:22:46.604Z,95.46
2019-03-29T01:25:18.019Z,95.15
2019-03-29T01:27:49.439Z,95.03
2019-03-29T01:30:21.079Z,95.21
2019-03-29T01:32:52.486Z,94.84
2019-03-29T01:35:23.923Z,95.08
2019-03-29T01:37:55.276Z,95.15
2019-03-29T01:40:31.239Z,95.64
2019-03-29T01:43:02.611Z,95.41
2019-03-29T01:45:34.119Z,95.41
2019-03-29T01:48:06.493Z,95.19
2019-03-29T01:50:37.877Z,95.61
2019-03-29T01:53:09.954Z,95.86
2019-03-29T01:55:42.382Z,95.64
2019-03-29T01:58:13.819Z,95.63
2019-03-29T02:00:45.222Z,95.53
2019-03-29T02:03:16.587Z,95.60
2019-03-29T02:05:48.016Z,95.59
2019-03-29T02:08:19.390Z,95.82
2019-03-29T02:10:52.474Z,96.08
2019-03-29T02:13:25.983Z,96.92
2019-03-29T02:15:57.889Z,96.86
2019-03-29T02:18:30.474Z,97.01
2019-03-29T02:21:01.890Z,96.58
2019-03-29T02:23:33.240Z,96.39
2019-03-29T02:26:04.759Z,96.80
2019-03-29T02:28:36.161Z,97.21
2019-03-29T02:31:09.022Z,96.63
2019-03-29T02:33:42.522Z,96.31
2019-03-29T02:36:13.947Z,96.12
2019-03-29T02:38:55.127Z,96.48
2019-03-29T02:41:19.581Z,96.78
2019-03-29T02:43:51.151Z,97.05
2019-03-29T02:46:25.650Z,96.79
2019-03-29T02:48:56.747Z,97.13
2019-03-29T02:51:28.151Z,96.34
2019-03-29T02:53:59.539Z,96.22
2019-03-29T02:56:30.926Z,96.36
2019-03-29T02:59:02.273Z,96.41
2019-03-29T03:01:33.716Z,96.19
2019-03-29T03:04:05.092Z,96.44
2019-03-29T03:06:36.559Z,96.59
2019-03-29T03:09:14.180Z,96.73
2019-03-29T03:11:42.834Z,96.64
2019-03-29T03:14:14.257Z,96.46
2019-03-29T03:16:45.650Z,96.71
2019-03-29T03:19:17.197Z,96.75
2019-03-29T03:21:48.685Z,96.91
2019-03-29T03:24:20.166Z,96.85
2019-03-29T03:26:51.609Z,96.66
2019-03-29T03:29:23.705Z,96.41
2019-03-29T03:31:55.091Z,96.28
2019-03-29T03:34:26.466Z,96.80
2019-03-29T03:36:57.869Z,97.35
2019-03-29T03:39:32.620Z,97.07
2019-03-29T03:42:02.374Z,97.03
2019-03-29T03:44:33.831Z,96.95
2019-03-29T03:47:05.177Z,96.85
2019-03-29T03:49:36.577Z,96.89
2019-03-29T03:52:07.967Z,96.87
2019-03-29T03:54:40.182Z,96.92
2019-03-29T03:57:14.110Z,97.06
2019-03-29T03:59:46.353Z,96.93
2019-03-29T04:02:20.118Z,96.77
2019-03-29T04:04:51.510Z,96.54
2019-03-29T04:07:22.889Z,96.47
2019-03-29T04:09:56.576Z,96.38
2019-03-29T04:12:28.069Z,96.19
2019-03-29T04:15:01.394Z,96.00
2019-03-29T04:17:32.902Z,95.84
2019-03-29T04:20:04.307Z,95.62
2019-03-29T04:22:35.729Z,95.44
2019-03-29T04:25:07.707Z,95.72
2019-03-29T04:27:39.144Z,95.61
2019-03-29T04:30:11.332Z,95.42
2019-03-29T04:32:42.677Z,95.34
2019-03-29T04:35:16.450Z,95.29
2019-03-29T04:37:47.864Z,95.23
2019-03-29T04:40:19.216Z,95.18
2019-03-29T04:42:50.600Z,94.99
2019-03-29T04:45:27.184Z,95.00
2019-03-29T04:47:58.613Z,95.22
2019-03-29T04:50:30.077Z,95.36
2019-03-29T04:53:01.515Z,95.35
2019-03-29T04:55:32.896Z,95.11
2019-03-29T04:58:04.353Z,95.31
2019-03-29T05:00:35.658Z,95.40
2019-03-29T05:03:07.106Z,95.30
2019-03-29T05:05:38.510Z,95.25
2019-03-29T05:08:09.976Z,95.47
2019-03-29T05:10:41.346Z,95.32
2019-03-29T05:13:12.750Z,95.11
2019-03-29T05:15:44.135Z,95.30
2019-03-29T05:18:15.560Z,95.52
2019-03-29T05:20:46.957Z,95.37
2019-03-29T05:23:18.364Z,95.47
2019-03-29T05:25:49.727Z,95.72
2019-03-29T05:28:21.155Z,95.46
2019-03-29T05:30:52.513Z,95.49
2019-03-29T05:33:23.956Z,95.63
2019-03-29T05:35:55.305Z,95.60
2019-03-29T05:38:28.916Z,95.78
2019-03-29T05:41:00.340Z,95.83
2019-03-29T05:43:31.770Z,95.92
2019-03-29T05:46:03.313Z,95.91
2019-03-29T05:48:34.833Z,96.10
2019-03-29T05:51:06.396Z,96.11
2019-03-29T05:53:37.821Z,96.19
2019-03-29T05:56:09.215Z,96.38
2019-03-29T05:58:40.665Z,96.58
2019-03-29T06:01:15.024Z,96.92
2019-03-29T06:03:49.165Z,96.87
2019-03-29T06:06:20.507Z,96.75
2019-03-29T06:08:51.950Z,96.83
2019-03-29T06:11:23.320Z,96.98
2019-03-29T06:13:57.202Z,97.26
2019-03-29T06:16:38.986Z,97.27
2019-03-29T06:19:01.786Z,97.45
2019-03-29T06:21:33.207Z,97.43
2019-03-29T06:24:07.703Z,97.53
2019-03-29T06:26:39.055Z,97.44
2019-03-29T06:29:10.540Z,97.77
2019-03-29T06:31:41.943Z,97.95
2019-03-29T06:34:13.393Z,98.09
2019-03-29T06:36:45.576Z,98.39
2019-03-29T06:39:21.109Z,98.52
2019-03-29T06:41:50.851Z,98.54
2019-03-29T06:44:22.256Z,98.68
2019-03-29T06:46:53.594Z,98.88
2019-03-29T06:49:25.009Z,99.10
2019-03-29T06:51:56.381Z,99.00
2019-03-29T06:54:27.841Z,98.88
2019-03-29T06:56:59.255Z,99.00
2019-03-29T06:59:32.469Z,99.17
2019-03-29T07:02:06.036Z,99.22
2019-03-29T07:04:37.576Z,99.29
2019-03-29T07:07:08.921Z,99.58
2019-03-29T07:09:40.412Z,99.67
2019-03-29T07:12:11.795Z,99.95
2019-03-29T07:14:43.205Z,100.00
2019-03-29T07:17:16.292Z,100.00
2019-03-29T07:19:47.753Z,100.00
2019-03-29T07:22:19.140Z,100.00
2019-03-29T07:24:50.562Z,100.00
2019-03-29T07:27:21.901Z,100.00
2019-03-29T07:29:53.397Z,100.00
2019-03-29T07:32:24.917Z,100.00
2019-03-29T07:34:56.335Z,100.00
2019-03-29T07:37:27.734Z,100.00
2019-03-29T07:39:59.150Z,100.00
2019-03-29T07:42:30.563Z,100.00
2019-03-29T07:45:01.999Z,100.00
2019-03-29T07:47:35.971Z,100.00
2019-03-29T07:50:07.945Z,100.00
2019-03-29T07:52:39.337Z,100.00
2019-03-29T07:55:10.872Z,100.00
2019-03-29T07:57:42.354Z,100.00
2019-03-29T08:00:14.268Z,100.00
2019-03-29T08:02:45.661Z,100.00
2019-03-29T08:05:18.084Z,100.00
2019-03-29T08:07:49.685Z,100.00
2019-03-29T08:10:26.140Z,100.00
2019-03-29T08:12:54.291Z,100.00
2019-03-29T08:15:25.671Z,100.00
2019-03-29T08:17:57.156Z,100.00
2019-03-29T08:20:44.765Z,100.00
2019-03-29T08:23:01.652Z,100.00
2019-03-29T08:25:33.121Z,100.00
2019-03-29T08:28:05.753Z,100.00
2019-03-29T08:30:38.680Z,100.00
2019-03-29T08:33:10.054Z,100.00
2019-03-29T08:35:41.430Z,100.00
2019-03-29T08:38:12.834Z,100.00
2019-03-29T08:40:45.369Z,100.00
2019-03-29T08:43:16.792Z,100.00
2019-03-29T08:45:48.177Z,100.00
2019-03-29T08:48:19.537Z,100.00
2019-03-29T08:50:50.978Z,100.00
2019-03-29T08:53:22.369Z,99.99
2019-03-29T08:55:53.760Z,99.14
2019-03-29T08:58:25.336Z,98.82
2019-03-29T09:00:56.753Z,97.40
2019-03-29T09:03:28.163Z,96.79
2019-03-29T09:05:59.659Z,96.78
2019-03-29T09:08:31.051Z,96.65
2019-03-29T09:11:02.428Z,96.01
2019-03-29T09:13:33.777Z,95.75
2019-03-29T09:16:08.264Z,95.50
2019-03-29T09:18:39.653Z,94.55
2019-03-29T09:21:11.064Z,93.78
2019-03-29T09:23:42.418Z,93.35
2019-03-29T09:26:13.868Z,93.28
2019-03-29T09:28:45.270Z,93.22
2019-03-29T09:31:16.681Z,92.71
2019-03-29T09:33:48.082Z,92.99
2019-03-29T09:36:19.785Z,91.67
2019-03-29T09:38:51.189Z,91.05
2019-03-29T09:41:22.670Z,90.42
2019-03-29T09:43:54.742Z,89.92
2019-03-29T09:46:26.190Z,88.84
2019-03-29T09:48:57.637Z,88.51
2019-03-29T09:51:29.021Z,87.70
2019-03-29T09:54:00.363Z,87.57
2019-03-29T09:56:38.710Z,87.09
2019-03-29T09:59:04.882Z,86.24
2019-03-29T10:01:36.405Z,86.23
2019-03-29T10:04:07.872Z,85.64
2019-03-29T10:06:39.334Z,84.54
2019-03-29T10:09:10.769Z,84.00
2019-03-29T10:11:42.195Z,83.96
2019-03-29T10:14:13.548Z,83.26
2019-03-29T10:16:44.969Z,83.64
2019-03-29T10:19:16.340Z,82.95
2019-03-29T10:21:47.767Z,81.89
2019-03-29T10:24:19.185Z,82.29
2019-03-29T10:26:50.595Z,82.23
2019-03-29T10:29:21.972Z,82.24
2019-03-29T10:31:53.412Z,81.36
2019-03-29T10:34:24.833Z,81.02
2019-03-29T10:36:56.241Z,81.20
2019-03-29T10:39:30.544Z,80.69
2019-03-29T10:42:01.994Z,81.51
2019-03-29T10:44:33.426Z,80.45
2019-03-29T10:47:06.473Z,80.02
2019-03-29T10:49:37.871Z,79.29
2019-03-29T10:52:12.353Z,78.77
2019-03-29T10:54:43.741Z,78.69
2019-03-29T10:57:15.195Z,78.37
2019-03-29T10:59:46.554Z,78.44
2019-03-29T11:02:19.716Z,78.60
2019-03-29T11:04:51.206Z,78.76
2019-03-29T11:07:22.616Z,78.69
2019-03-29T11:09:54.021Z,78.21
2019-03-29T11:12:25.436Z,78.95
2019-03-29T11:14:56.810Z,78.28
2019-03-29T11:17:28.285Z,78.64
2019-03-29T11:19:59.660Z,78.68
2019-03-29T11:22:31.078Z,78.49
2019-03-29T11:25:02.513Z,78.17
2019-03-29T11:27:33.924Z,78.22
2019-03-29T11:30:06.156Z,79.06
2019-03-29T11:32:37.651Z,77.84
2019-03-29T11:35:09.138Z,77.52
2019-03-29T11:37:42.337Z,77.03
2019-03-29T11:40:13.825Z,76.32
2019-03-29T11:42:45.254Z,75.92
2019-03-29T11:45:16.752Z,75.45
2019-03-29T11:47:48.140Z,75.14
2019-03-29T11:50:19.779Z,74.89
2019-03-29T11:52:51.263Z,74.52
2019-03-29T11:55:22.665Z,74.60
2019-03-29T11:57:55.992Z,73.38
2019-03-29T12:00:38.037Z,74.44
2019-03-29T12:03:12.495Z,74.44
2019-03-29T12:05:43.903Z,74.53
2019-03-29T12:08:15.324Z,73.89
2019-03-29T12:10:46.714Z,73.49
2019-03-29T12:13:18.129Z,73.45
2019-03-29T12:15:50.188Z,71.63
2019-03-29T12:18:21.721Z,71.55
2019-03-29T12:20:54.470Z,71.09
2019-03-29T12:23:25.968Z,70.70
2019-03-29T12:25:57.311Z,71.08
2019-03-29T12:28:28.831Z,71.12
2019-03-29T12:31:02.564Z,71.33
2019-03-29T12:33:34.007Z,71.28
2019-03-29T12:36:05.390Z,71.67
2019-03-29T12:38:36.829Z,71.55
2019-03-29T12:41:09.723Z,71.40
2019-03-29T12:43:54.618Z,71.20
2019-03-29T12:46:14.211Z,70.80
2019-03-29T12:48:46.586Z,70.82
2019-03-29T12:51:20.537Z,69.41
2019-03-29T12:53:52.009Z,69.29
2019-03-29T12:56:23.367Z,68.53
2019-03-29T12:58:54.790Z,67.83
2019-03-29T13:01:38.469Z,67.55
2019-03-29T13:03:59.341Z,67.29
2019-03-29T13:06:30.772Z,67.30
2019-03-29T13:09:02.196Z,67.39
2019-03-29T13:11:33.578Z,65.95
2019-03-29T13:14:10.551Z,66.63
2019-03-29T13:16:39.131Z,65.20
2019-03-29T13:19:10.603Z,64.91
2019-03-29T13:21:41.977Z,64.44
2019-03-29T13:24:15.990Z,65.75
2019-03-29T13:26:54.325Z,65.96
2019-03-29T13:29:25.355Z,66.28
2019-03-29T13:31:56.769Z,65.46
2019-03-29T13:34:28.175Z,64.94
2019-03-29T13:36:59.620Z,65.56
2019-03-29T13:39:30.962Z,64.62
2019-03-29T13:42:04.584Z,65.66
2019-03-29T13:44:36.025Z,65.93
2019-03-29T13:47:07.397Z,64.84
2019-03-29T13:49:38.903Z,64.46
2019-03-29T13:52:10.307Z,65.21
2019-03-29T13:54:41.757Z,65.57
2019-03-29T13:57:13.176Z,64.59
2019-03-29T13:59:44.645Z,62.85
2019-03-29T14:02:16.011Z,61.59
2019-03-29T14:04:48.562Z,59.62
2019-03-29T14:07:20.038Z,58.50
2019-03-29T14:09:52.467Z,57.97
2019-03-29T14:12:23.862Z,58.03
2019-03-29T14:14:55.288Z,57.15
2019-03-29T14:17:26.676Z,56.25
2019-03-29T14:19:58.165Z,55.77
2019-03-29T14:22:29.547Z,56.60
2019-03-29T14:25:01.003Z,56.59
2019-03-29T14:27:32.365Z,56.87
2019-03-29T14:30:05.124Z,57.65
2019-03-29T14:32:37.017Z,56.48
2019-03-29T14:35:09.255Z,55.76
2019-03-29T14:37:40.721Z,55.77
2019-03-29T14:40:12.625Z,54.75
2019-03-29T14:42:43.966Z,55.71
2019-03-29T14:45:15.479Z,56.10
2019-03-29T14:47:46.885Z,55.36
2019-03-29T14:50:18.679Z,55.44
2019-03-29T14:52:51.251Z,56.03
2019-03-29T14:55:22.995Z,56.97
2019-03-29T14:57:54.388Z,57.24
2019-03-29T15:00:43.892Z,56.18
2019-03-29T15:03:15.442Z,56.47
2019-03-29T15:05:49.702Z,56.59
2019-03-29T15:08:24.223Z,57.30
2019-03-29T15:10:55.656Z,56.69
2019-03-29T15:13:27.085Z,56.37
2019-03-29T15:15:58.444Z,55.66
2019-03-29T15:18:29.847Z,56.02
2019-03-29T15:21:01.297Z,55.57
2019-03-29T15:23:32.648Z,55.05
2019-03-29T15:26:04.396Z,54.87
2019-03-29T15:28:37.500Z,55.33
2019-03-29T15:31:09.140Z,55.11
2019-03-29T15:33:40.665Z,55.52
2019-03-29T15:36:12.079Z,55.63
2019-03-29T15:38:43.460Z,55.19
2019-03-29T15:41:16.151Z,55.13
2019-03-29T15:43:47.534Z,55.06
2019-03-29T15:46:18.975Z,54.46
2019-03-29T15:48:50.355Z,53.39
2019-03-29T15:51:24.767Z,54.35
2019-03-29T15:53:57.622Z,54.27
2019-03-29T15:56:29.083Z,53.39
2019-03-29T15:59:00.490Z,54.11
2019-03-29T16:01:31.945Z,54.19
2019-03-29T16:04:03.311Z,53.89
2019-03-29T16:06:34.757Z,53.70
2019-03-29T16:09:07.418Z,54.30
2019-03-29T16:11:43.881Z,53.77
2019-03-29T16:14:15.333Z,53.75
2019-03-29T16:16:46.779Z,53.73
2019-03-29T16:19:18.260Z,53.56
2019-03-29T16:21:49.697Z,54.19
2019-03-29T16:24:21.198Z,54.44
2019-03-29T16:26:52.610Z,53.98
2019-03-29T16:29:24.016Z,54.61
2019-03-29T16:31:55.458Z,54.94
2019-03-29T16:34:26.895Z,55.35
2019-03-29T16:36:58.214Z,55.30
2019-03-29T16:39:30.773Z,55.14
2019-03-29T16:42:03.381Z,55.37
2019-03-29T16:44:41.536Z,56.05
2019-03-29T16:47:12.922Z,56.02
2019-03-29T16:49:44.420Z,55.89
2019-03-29T16:52:15.869Z,56.02
2019-03-29T16:54:47.270Z,56.54
2019-03-29T16:57:18.707Z,56.57
2019-03-29T16:59:50.171Z,56.90
2019-03-29T17:02:21.559Z,57.58
2019-03-29T17:04:52.955Z,57.42
2019-03-29T17:07:24.347Z,58.42
2019-03-29T17:09:55.811Z,59.47
2019-03-29T17:12:27.257Z,59.33
2019-03-29T17:14:58.689Z,59.87
2019-03-29T17:17:30.115Z,60.49
2019-03-29T17:20:01.554Z,60.90
2019-03-29T17:22:32.972Z,61.64
2019-03-29T17:25:04.413Z,62.07
2019-03-29T17:27:35.808Z,62.61
2019-03-29T17:30:10.504Z,62.96
2019-03-29T17:32:42.888Z,63.50
2019-03-29T17:35:14.321Z,64.05
2019-03-29T17:37:45.710Z,64.47
2019-03-29T17:40:17.238Z,64.79
2019-03-29T17:42:48.656Z,65.22
2019-03-29T17:45:22.872Z,65.59
2019-03-29T17:47:54.306Z,66.01
2019-03-29T17:50:25.896Z,66.04
2019-03-29T17:52:57.475Z,66.51
2019-03-29T17:55:31.860Z,67.08
2019-03-29T17:58:02.395Z,67.39
2019-03-29T18:00:33.835Z,67.94
2019-03-29T18:03:06.307Z,68.44
2019-03-29T18:05:40.431Z,68.67
2019-03-29T18:08:25.011Z,68.97
2019-03-29T18:10:56.468Z,69.40
2019-03-29T18:13:27.841Z,70.03
2019-03-29T18:15:59.290Z,70.38
2019-03-29T18:18:30.833Z,70.56
2019-03-29T18:21:02.294Z,71.12
2019-03-29T18:23:33.723Z,71.26
2019-03-29T18:26:09.432Z,71.81
2019-03-29T18:28:40.105Z,71.96
2019-03-29T18:31:11.635Z,72.10
2019-03-29T18:33:43.040Z,72.34
2019-03-29T18:36:15.639Z,72.17
2019-03-29T18:38:49.190Z,72.18
2019-03-29T18:41:20.713Z,73.38
2019-03-29T18:43:55.019Z,73.35
2019-03-29T18:46:28.911Z,73.27
2019-03-29T18:49:00.330Z,73.05
2019-03-29T18:51:31.796Z,73.28
2019-03-29T18:54:04.603Z,73.39
2019-03-29T18:56:36.039Z,73.50
2019-03-29T18:59:07.516Z,73.89
2019-03-29T19:01:39.872Z,74.16
2019-03-29T19:04:11.327Z,74.31
2019-03-29T19:06:45.040Z,74.54
2019-03-29T19:09:16.472Z,74.80
2019-03-29T19:11:48.159Z,75.03
2019-03-29T19:14:19.533Z,75.51
2019-03-29T19:16:58.688Z,75.76
2019-03-29T19:19:27.240Z,76.09
2019-03-29T19:21:58.693Z,76.60
2019-03-29T19:24:30.108Z,76.84
2019-03-29T19:27:01.601Z,76.99
2019-03-29T19:29:35.355Z,77.00
2019-03-29T19:32:06.830Z,77.57
2019-03-29T19:34:38.258Z,77.58
2019-03-29T19:37:09.753Z,77.34
2019-03-29T19:39:41.194Z,77.66
2019-03-29T19:42:16.781Z,78.18
2019-03-29T19:44:47.243Z,78.29
2019-03-29T19:47:18.979Z,78.27
2019-03-29T19:49:50.464Z,78.65
2019-03-29T19:52:25.081Z,79.17
2019-03-29T19:55:01.270Z,79.56
2019-03-29T19:57:32.877Z,79.73
2019-03-29T20:00:06.246Z,79.94
2019-03-29T20:02:37.935Z,80.14
2019-03-29T20:05:24.444Z,80.70
2019-03-29T20:07:58.515Z,80.81
2019-03-29T20:10:30.086Z,81.08
2019-03-29T20:13:01.721Z,81.12
2019-03-29T20:15:33.068Z,81.32
2019-03-29T20:18:04.530Z,81.87
2019-03-29T20:20:36.067Z,82.35
2019-03-29T20:23:11.473Z,82.56
2019-03-29T20:25:42.909Z,82.26
2019-03-29T20:28:14.335Z,82.45
2019-03-29T20:30:46.198Z,82.82
2019-03-29T20:33:19.139Z,82.95
2019-03-29T20:35:51.802Z,82.92
2019-03-29T20:38:23.254Z,82.77
2019-03-29T20:40:54.590Z,82.99
2019-03-29T20:43:26.023Z,82.83
2019-03-29T20:45:57.454Z,83.46
2019-03-29T20:48:28.867Z,83.95
2019-03-29T20:51:00.231Z,84.23
2019-03-29T20:53:32.237Z,84.59
2019-03-29T20:56:06.438Z,84.46
2019-03-29T20:58:36.982Z,84.75
2019-03-29T21:01:08.375Z,84.63
2019-03-29T21:03:39.829Z,84.53
2019-03-29T21:06:11.206Z,84.47
2019-03-29T21:08:42.684Z,84.91
2019-03-29T21:11:23.156Z,85.09
2019-03-29T21:13:58.804Z,85.71
2019-03-29T21:16:30.261Z,86.06
2019-03-29T21:19:03.128Z,86.35
2019-03-29T21:21:34.535Z,85.96
2019-03-29T21:24:06.974Z,85.88
2019-03-29T21:26:38.329Z,85.83
2019-03-29T21:29:09.769Z,86.19
2019-03-29T21:31:41.162Z,86.42
2019-03-29T21:34:12.718Z,86.40
2019-03-29T21:36:44.106Z,86.26
2019-03-29T21:39:15.498Z,86.34
2019-03-29T21:41:47.891Z,86.41
2019-03-29T21:44:20.526Z,86.57
2019-03-29T21:46:51.959Z,87.41
2019-03-29T21:49:23.360Z,87.45
2019-03-29T21:51:54.766Z,87.12
2019-03-29T21:54:26.217Z,87.21
2019-03-29T21:57:03.640Z,87.45
2019-03-29T21:59:37.073Z,87.26
2019-03-29T22:02:08.265Z,87.65
2019-03-29T22:04:39.719Z,87.49
2019-03-29T22:07:11.096Z,87.64
2019-03-29T22:09:44.885Z,87.95
2019-03-29T22:12:16.283Z,88.05
2019-03-29T22:14:47.794Z,87.97
2019-03-29T22:17:19.180Z,88.04
2019-03-29T22:19:50.603Z,88.33
2019-03-29T22:22:22.019Z,88.09
2019-03-29T22:24:53.448Z,88.76
2019-03-29T22:27:24.831Z,88.62
2019-03-29T22:29:56.294Z,88.93
2019-03-29T22:32:27.678Z,89.01
2019-03-29T22:34:59.147Z,89.33
2019-03-29T22:37:30.495Z,88.86
2019-03-29T22:40:01.932Z,88.86
2019-03-29T22:42:36.616Z,88.85
2019-03-29T22:45:10.145Z,88.92
2019-03-29T22:47:41.507Z,88.77
2019-03-29T22:50:15.533Z,88.74
2019-03-29T22:52:47.211Z,89.09
2019-03-29T22:55:18.644Z,89.10
2019-03-29T22:57:50.121Z,89.08
2019-03-29T23:00:35.476Z,88.77
2019-03-29T23:03:07.625Z,89.02
2019-03-29T23:05:40.199Z,89.42
2019-03-29T23:08:11.513Z,89.30
2019-03-29T23:10:42.957Z,89.58
2019-03-29T23:13:14.344Z,89.49
2019-03-29T23:15:45.770Z,89.25
2019-03-29T23:18:17.547Z,89.50
2019-03-29T23:20:48.996Z,89.51
2019-03-29T23:23:20.347Z,89.84
2019-03-29T23:25:51.853Z,89.41
2019-03-29T23:28:26.093Z,89.41
2019-03-29T23:30:57.487Z,89.59
2019-03-29T23:33:30.368Z,89.70
2019-03-29T23:36:01.832Z,90.14
2019-03-29T23:38:33.211Z,90.33
2019-03-29T23:41:05.748Z,90.51
2019-03-29T23:43:37.463Z,90.43
2019-03-29T23:46:08.899Z,90.44
2019-03-29T23:48:40.279Z,90.64
2019-03-29T23:51:11.781Z,90.57
2019-03-29T23:53:43.163Z,90.93
2019-03-29T23:56:14.565Z,91.39
2019-03-29T23:58:48.273Z,92.07
